sensor_id;sensor_type;location;lat;lon;timestamp;temperature;humidity
52575;DHT22;38468;48.114;-1.684;2023-06-10T00:00:57;20.80;82.10
52575;DHT22;38468;48.114;-1.684;2023-06-10T00:03:00;20.70;82.30
52575;DHT22;38468;48.114;-1.684;2023-06-10T00:05:00;20.80;82.60
52575;DHT22;38468;48.114;-1.684;2023-06-10T00:07:02;20.80;82.30
52575;DHT22;38468;48.114;-1.684;2023-06-10T00:09:04;20.80;82.50
52575;DHT22;38468;48.114;-1.684;2023-06-10T00:11:05;20.70;82.80
52575;DHT22;38468;48.114;-1.684;2023-06-10T00:13:06;20.70;82.90
52575;DHT22;38468;48.114;-1.684;2023-06-10T00:15:10;20.70;82.90
52575;DHT22;38468;48.114;-1.684;2023-06-10T00:17:11;20.70;82.90
52575;DHT22;38468;48.114;-1.684;2023-06-10T00:19:11;20.70;83.00
52575;DHT22;38468;48.114;-1.684;2023-06-10T00:21:14;20.70;83.10
52575;DHT22;38468;48.114;-1.684;2023-06-10T00:23:14;20.70;83.00
52575;DHT22;38468;48.114;-1.684;2023-06-10T00:25:15;20.70;82.90
52575;DHT22;38468;48.114;-1.684;2023-06-10T00:27:16;20.70;83.00
52575;DHT22;38468;48.114;-1.684;2023-06-10T00:29:16;20.60;83.00
52575;DHT22;38468;48.114;-1.684;2023-06-10T00:31:17;20.60;82.40
52575;DHT22;38468;48.114;-1.684;2023-06-10T00:33:18;20.70;82.10
52575;DHT22;38468;48.114;-1.684;2023-06-10T00:35:18;20.70;82.40
52575;DHT22;38468;48.114;-1.684;2023-06-10T00:37:19;20.70;82.60
52575;DHT22;38468;48.114;-1.684;2023-06-10T00:39:20;20.70;82.40
52575;DHT22;38468;48.114;-1.684;2023-06-10T00:41:20;20.70;82.70
52575;DHT22;38468;48.114;-1.684;2023-06-10T00:43:21;20.70;82.60
52575;DHT22;38468;48.114;-1.684;2023-06-10T00:45:22;20.70;82.70
52575;DHT22;38468;48.114;-1.684;2023-06-10T00:47:23;20.60;82.80
52575;DHT22;38468;48.114;-1.684;2023-06-10T00:49:24;20.60;82.90
52575;DHT22;38468;48.114;-1.684;2023-06-10T00:51:25;20.60;82.60
52575;DHT22;38468;48.114;-1.684;2023-06-10T00:53:28;20.60;81.90
52575;DHT22;38468;48.114;-1.684;2023-06-10T00:55:32;20.60;81.60
52575;DHT22;38468;48.114;-1.684;2023-06-10T00:57:34;20.50;81.70
52575;DHT22;38468;48.114;-1.684;2023-06-10T00:59:35;20.50;81.40
52575;DHT22;38468;48.114;-1.684;2023-06-10T01:01:36;20.50;81.50
52575;DHT22;38468;48.114;-1.684;2023-06-10T01:03:40;20.50;81.50
52575;DHT22;38468;48.114;-1.684;2023-06-10T01:05:42;20.50;81.50
52575;DHT22;38468;48.114;-1.684;2023-06-10T01:10:20;20.50;81.50
52575;DHT22;38468;48.114;-1.684;2023-06-10T01:12:34;20.50;81.70
52575;DHT22;38468;48.114;-1.684;2023-06-10T01:14:43;20.50;82.00
52575;DHT22;38468;48.114;-1.684;2023-06-10T01:16:52;20.50;81.90
52575;DHT22;38468;48.114;-1.684;2023-06-10T01:18:54;20.50;81.70
52575;DHT22;38468;48.114;-1.684;2023-06-10T01:20:55;20.50;81.90
52575;DHT22;38468;48.114;-1.684;2023-06-10T01:22:58;20.40;81.80
52575;DHT22;38468;48.114;-1.684;2023-06-10T01:25:00;20.40;82.00
52575;DHT22;38468;48.114;-1.684;2023-06-10T01:27:08;20.40;82.10
52575;DHT22;38468;48.114;-1.684;2023-06-10T01:29:21;20.40;82.20
52575;DHT22;38468;48.114;-1.684;2023-06-10T01:31:41;20.40;82.10
52575;DHT22;38468;48.114;-1.684;2023-06-10T01:33:46;20.40;82.00
52575;DHT22;38468;48.114;-1.684;2023-06-10T01:35:50;20.40;81.80
52575;DHT22;38468;48.114;-1.684;2023-06-10T01:37:54;20.40;81.90
52575;DHT22;38468;48.114;-1.684;2023-06-10T01:39:58;20.40;82.00
52575;DHT22;38468;48.114;-1.684;2023-06-10T01:42:00;20.30;82.20
52575;DHT22;38468;48.114;-1.684;2023-06-10T01:44:03;20.40;82.10
52575;DHT22;38468;48.114;-1.684;2023-06-10T01:46:04;20.40;81.70
52575;DHT22;38468;48.114;-1.684;2023-06-10T01:48:06;20.40;81.70
52575;DHT22;38468;48.114;-1.684;2023-06-10T01:50:07;20.40;81.70
52575;DHT22;38468;48.114;-1.684;2023-06-10T01:52:08;20.50;81.90
52575;DHT22;38468;48.114;-1.684;2023-06-10T01:54:09;20.50;81.80
52575;DHT22;38468;48.114;-1.684;2023-06-10T01:56:10;20.50;82.00
52575;DHT22;38468;48.114;-1.684;2023-06-10T01:58:17;20.40;82.20
52575;DHT22;38468;48.114;-1.684;2023-06-10T02:00:17;20.40;82.60
52575;DHT22;38468;48.114;-1.684;2023-06-10T02:02:18;20.40;82.70
52575;DHT22;38468;48.114;-1.684;2023-06-10T02:04:19;20.40;82.70
52575;DHT22;38468;48.114;-1.684;2023-06-10T02:06:20;20.50;82.40
52575;DHT22;38468;48.114;-1.684;2023-06-10T02:08:20;20.30;82.60
52575;DHT22;38468;48.114;-1.684;2023-06-10T02:10:21;20.40;82.70
52575;DHT22;38468;48.114;-1.684;2023-06-10T02:12:22;20.50;82.30
52575;DHT22;38468;48.114;-1.684;2023-06-10T02:14:24;20.40;82.30
52575;DHT22;38468;48.114;-1.684;2023-06-10T02:16:25;20.40;82.50
52575;DHT22;38468;48.114;-1.684;2023-06-10T02:18:27;20.40;82.90
52575;DHT22;38468;48.114;-1.684;2023-06-10T02:20:29;20.30;83.00
52575;DHT22;38468;48.114;-1.684;2023-06-10T02:22:33;20.30;83.00
52575;DHT22;38468;48.114;-1.684;2023-06-10T02:24:36;20.30;83.00
52575;DHT22;38468;48.114;-1.684;2023-06-10T02:26:38;20.40;82.60
52575;DHT22;38468;48.114;-1.684;2023-06-10T02:28:43;20.30;82.80
52575;DHT22;38468;48.114;-1.684;2023-06-10T02:30:43;20.30;82.70
52575;DHT22;38468;48.114;-1.684;2023-06-10T02:32:44;20.30;82.60
52575;DHT22;38468;48.114;-1.684;2023-06-10T02:34:48;20.30;82.50
52575;DHT22;38468;48.114;-1.684;2023-06-10T02:36:52;20.30;82.30
52575;DHT22;38468;48.114;-1.684;2023-06-10T02:38:56;20.30;82.20
52575;DHT22;38468;48.114;-1.684;2023-06-10T02:40:57;20.20;82.70
52575;DHT22;38468;48.114;-1.684;2023-06-10T02:43:04;20.20;82.80
52575;DHT22;38468;48.114;-1.684;2023-06-10T02:45:06;20.20;82.60
52575;DHT22;38468;48.114;-1.684;2023-06-10T02:47:07;20.20;82.50
52575;DHT22;38468;48.114;-1.684;2023-06-10T02:49:11;20.20;82.70
52575;DHT22;38468;48.114;-1.684;2023-06-10T02:51:13;20.20;82.70
52575;DHT22;38468;48.114;-1.684;2023-06-10T02:53:13;20.20;82.50
52575;DHT22;38468;48.114;-1.684;2023-06-10T02:55:18;20.20;82.70
52575;DHT22;38468;48.114;-1.684;2023-06-10T02:57:19;20.20;82.20
52575;DHT22;38468;48.114;-1.684;2023-06-10T02:59:20;20.20;82.50
52575;DHT22;38468;48.114;-1.684;2023-06-10T03:01:21;20.20;82.80
52575;DHT22;38468;48.114;-1.684;2023-06-10T03:03:22;20.20;82.90
52575;DHT22;38468;48.114;-1.684;2023-06-10T03:05:23;20.10;82.90
52575;DHT22;38468;48.114;-1.684;2023-06-10T03:07:27;20.20;82.70
52575;DHT22;38468;48.114;-1.684;2023-06-10T03:09:28;20.20;82.40
52575;DHT22;38468;48.114;-1.684;2023-06-10T03:11:30;20.30;82.50
52575;DHT22;38468;48.114;-1.684;2023-06-10T03:13:31;20.20;82.70
52575;DHT22;38468;48.114;-1.684;2023-06-10T03:15:33;20.20;83.00
52575;DHT22;38468;48.114;-1.684;2023-06-10T03:17:37;20.20;82.90
52575;DHT22;38468;48.114;-1.684;2023-06-10T03:19:37;20.20;82.80
52575;DHT22;38468;48.114;-1.684;2023-06-10T03:21:39;20.10;82.80
52575;DHT22;38468;48.114;-1.684;2023-06-10T03:23:42;20.10;82.80
52575;DHT22;38468;48.114;-1.684;2023-06-10T03:25:42;20.10;82.90
52575;DHT22;38468;48.114;-1.684;2023-06-10T03:27:45;20.10;82.90
52575;DHT22;38468;48.114;-1.684;2023-06-10T03:29:46;20.10;82.70
52575;DHT22;38468;48.114;-1.684;2023-06-10T03:31:47;20.10;82.70
52575;DHT22;38468;48.114;-1.684;2023-06-10T03:33:51;20.20;82.40
52575;DHT22;38468;48.114;-1.684;2023-06-10T03:35:51;20.20;82.30
52575;DHT22;38468;48.114;-1.684;2023-06-10T03:37:52;20.20;82.20
52575;DHT22;38468;48.114;-1.684;2023-06-10T03:39:53;20.10;82.20
52575;DHT22;38468;48.114;-1.684;2023-06-10T03:41:54;20.10;82.40
52575;DHT22;38468;48.114;-1.684;2023-06-10T03:43:55;20.10;82.30
52575;DHT22;38468;48.114;-1.684;2023-06-10T03:45:55;20.10;82.40
52575;DHT22;38468;48.114;-1.684;2023-06-10T03:47:56;20.10;82.50
52575;DHT22;38468;48.114;-1.684;2023-06-10T03:49:57;20.10;82.50
52575;DHT22;38468;48.114;-1.684;2023-06-10T03:51:58;20.10;82.50
52575;DHT22;38468;48.114;-1.684;2023-06-10T03:53:59;20.10;82.30
52575;DHT22;38468;48.114;-1.684;2023-06-10T03:56:00;20.00;82.50
52575;DHT22;38468;48.114;-1.684;2023-06-10T03:58:01;20.00;82.50
52575;DHT22;38468;48.114;-1.684;2023-06-10T04:00:01;20.00;82.70
52575;DHT22;38468;48.114;-1.684;2023-06-10T04:02:07;20.00;82.60
52575;DHT22;38468;48.114;-1.684;2023-06-10T04:04:09;20.00;82.60
52575;DHT22;38468;48.114;-1.684;2023-06-10T04:06:10;20.00;82.70
52575;DHT22;38468;48.114;-1.684;2023-06-10T04:08:11;20.00;82.70
52575;DHT22;38468;48.114;-1.684;2023-06-10T04:10:12;20.00;82.80
52575;DHT22;38468;48.114;-1.684;2023-06-10T04:12:12;20.00;82.80
52575;DHT22;38468;48.114;-1.684;2023-06-10T04:14:13;20.00;82.90
52575;DHT22;38468;48.114;-1.684;2023-06-10T04:16:14;20.00;83.00
52575;DHT22;38468;48.114;-1.684;2023-06-10T04:18:14;20.00;83.00
52575;DHT22;38468;48.114;-1.684;2023-06-10T04:20:16;20.00;82.90
52575;DHT22;38468;48.114;-1.684;2023-06-10T04:22:16;20.00;83.00
52575;DHT22;38468;48.114;-1.684;2023-06-10T04:24:18;20.00;83.00
52575;DHT22;38468;48.114;-1.684;2023-06-10T04:26:19;20.00;83.10
52575;DHT22;38468;48.114;-1.684;2023-06-10T04:28:19;20.00;83.00
52575;DHT22;38468;48.114;-1.684;2023-06-10T04:30:20;20.00;83.00
52575;DHT22;38468;48.114;-1.684;2023-06-10T04:32:21;20.00;83.00
52575;DHT22;38468;48.114;-1.684;2023-06-10T04:34:22;20.00;83.00
52575;DHT22;38468;48.114;-1.684;2023-06-10T04:36:23;20.00;83.10
52575;DHT22;38468;48.114;-1.684;2023-06-10T04:38:24;20.00;83.10
52575;DHT22;38468;48.114;-1.684;2023-06-10T04:40:24;20.00;83.10
52575;DHT22;38468;48.114;-1.684;2023-06-10T04:42:25;20.00;83.00
52575;DHT22;38468;48.114;-1.684;2023-06-10T04:44:25;20.00;83.20
52575;DHT22;38468;48.114;-1.684;2023-06-10T04:46:26;20.00;82.90
52575;DHT22;38468;48.114;-1.684;2023-06-10T04:48:27;20.00;83.00
52575;DHT22;38468;48.114;-1.684;2023-06-10T04:50:27;20.00;83.00
52575;DHT22;38468;48.114;-1.684;2023-06-10T04:52:28;20.00;83.10
52575;DHT22;38468;48.114;-1.684;2023-06-10T04:54:29;19.90;83.30
52575;DHT22;38468;48.114;-1.684;2023-06-10T04:56:30;19.80;83.40
52575;DHT22;38468;48.114;-1.684;2023-06-10T04:58:31;19.80;83.50
52575;DHT22;38468;48.114;-1.684;2023-06-10T05:00:31;19.90;83.50
52575;DHT22;38468;48.114;-1.684;2023-06-10T05:02:32;19.90;83.50
52575;DHT22;38468;48.114;-1.684;2023-06-10T05:04:33;19.90;83.60
52575;DHT22;38468;48.114;-1.684;2023-06-10T05:06:33;19.90;83.50
52575;DHT22;38468;48.114;-1.684;2023-06-10T05:08:34;19.90;83.50
52575;DHT22;38468;48.114;-1.684;2023-06-10T05:10:35;20.00;83.40
52575;DHT22;38468;48.114;-1.684;2023-06-10T05:12:35;19.90;83.50
52575;DHT22;38468;48.114;-1.684;2023-06-10T05:14:36;19.90;83.70
52575;DHT22;38468;48.114;-1.684;2023-06-10T05:16:36;20.00;83.60
52575;DHT22;38468;48.114;-1.684;2023-06-10T05:18:37;20.00;83.70
52575;DHT22;38468;48.114;-1.684;2023-06-10T05:20:38;20.00;83.60
52575;DHT22;38468;48.114;-1.684;2023-06-10T05:22:39;20.00;83.70
52575;DHT22;38468;48.114;-1.684;2023-06-10T05:24:40;20.00;83.50
52575;DHT22;38468;48.114;-1.684;2023-06-10T05:26:41;20.00;83.60
52575;DHT22;38468;48.114;-1.684;2023-06-10T05:28:43;20.00;83.60
52575;DHT22;38468;48.114;-1.684;2023-06-10T05:30:43;20.00;83.60
52575;DHT22;38468;48.114;-1.684;2023-06-10T05:32:44;20.00;83.50
52575;DHT22;38468;48.114;-1.684;2023-06-10T05:34:45;20.00;83.50
52575;DHT22;38468;48.114;-1.684;2023-06-10T05:36:45;20.00;83.50
52575;DHT22;38468;48.114;-1.684;2023-06-10T05:38:46;20.00;83.40
52575;DHT22;38468;48.114;-1.684;2023-06-10T05:40:47;20.00;83.70
52575;DHT22;38468;48.114;-1.684;2023-06-10T05:42:48;20.00;83.60
52575;DHT22;38468;48.114;-1.684;2023-06-10T05:44:48;20.00;83.50
52575;DHT22;38468;48.114;-1.684;2023-06-10T05:46:49;20.00;83.40
52575;DHT22;38468;48.114;-1.684;2023-06-10T05:48:49;20.00;83.30
52575;DHT22;38468;48.114;-1.684;2023-06-10T05:50:50;20.00;83.60
52575;DHT22;38468;48.114;-1.684;2023-06-10T05:52:51;20.00;83.60
52575;DHT22;38468;48.114;-1.684;2023-06-10T05:54:54;20.10;83.30
52575;DHT22;38468;48.114;-1.684;2023-06-10T05:56:54;20.00;83.30
52575;DHT22;38468;48.114;-1.684;2023-06-10T05:58:56;20.00;83.50
52575;DHT22;38468;48.114;-1.684;2023-06-10T06:00:56;20.00;83.50
52575;DHT22;38468;48.114;-1.684;2023-06-10T06:02:57;20.10;83.40
52575;DHT22;38468;48.114;-1.684;2023-06-10T06:04:59;20.00;83.40
52575;DHT22;38468;48.114;-1.684;2023-06-10T06:06:59;20.00;83.50
52575;DHT22;38468;48.114;-1.684;2023-06-10T06:09:00;20.00;83.50
52575;DHT22;38468;48.114;-1.684;2023-06-10T06:11:01;20.10;83.40
52575;DHT22;38468;48.114;-1.684;2023-06-10T06:13:01;20.10;83.50
52575;DHT22;38468;48.114;-1.684;2023-06-10T06:15:03;20.10;83.40
52575;DHT22;38468;48.114;-1.684;2023-06-10T06:17:04;20.10;83.50
52575;DHT22;38468;48.114;-1.684;2023-06-10T06:19:04;20.10;83.70
52575;DHT22;38468;48.114;-1.684;2023-06-10T06:21:05;20.10;83.70
52575;DHT22;38468;48.114;-1.684;2023-06-10T06:23:05;20.10;83.90
52575;DHT22;38468;48.114;-1.684;2023-06-10T06:25:07;20.10;83.70
52575;DHT22;38468;48.114;-1.684;2023-06-10T06:27:07;20.00;83.80
52575;DHT22;38468;48.114;-1.684;2023-06-10T06:29:08;20.10;83.60
52575;DHT22;38468;48.114;-1.684;2023-06-10T06:31:11;20.10;83.50
52575;DHT22;38468;48.114;-1.684;2023-06-10T06:33:13;20.10;83.60
52575;DHT22;38468;48.114;-1.684;2023-06-10T06:35:14;20.10;83.70
52575;DHT22;38468;48.114;-1.684;2023-06-10T06:37:14;20.10;83.80
52575;DHT22;38468;48.114;-1.684;2023-06-10T06:39:15;20.20;83.90
52575;DHT22;38468;48.114;-1.684;2023-06-10T06:41:16;20.10;84.00
52575;DHT22;38468;48.114;-1.684;2023-06-10T06:43:16;20.20;83.80
52575;DHT22;38468;48.114;-1.684;2023-06-10T06:45:18;20.20;83.70
52575;DHT22;38468;48.114;-1.684;2023-06-10T06:47:19;20.20;83.60
52575;DHT22;38468;48.114;-1.684;2023-06-10T06:49:20;20.20;83.70
52575;DHT22;38468;48.114;-1.684;2023-06-10T06:51:20;20.20;83.90
52575;DHT22;38468;48.114;-1.684;2023-06-10T06:53:21;20.30;83.80
52575;DHT22;38468;48.114;-1.684;2023-06-10T06:55:22;20.30;83.70
52575;DHT22;38468;48.114;-1.684;2023-06-10T06:57:23;20.30;83.70
52575;DHT22;38468;48.114;-1.684;2023-06-10T06:59:23;20.30;83.80
52575;DHT22;38468;48.114;-1.684;2023-06-10T07:01:26;20.40;83.90
52575;DHT22;38468;48.114;-1.684;2023-06-10T07:03:26;20.30;84.00
52575;DHT22;38468;48.114;-1.684;2023-06-10T07:05:27;20.20;83.60
52575;DHT22;38468;48.114;-1.684;2023-06-10T07:07:28;20.20;83.60
52575;DHT22;38468;48.114;-1.684;2023-06-10T07:09:28;20.30;83.50
52575;DHT22;38468;48.114;-1.684;2023-06-10T07:11:29;20.30;83.40
52575;DHT22;38468;48.114;-1.684;2023-06-10T07:13:30;20.20;83.30
52575;DHT22;38468;48.114;-1.684;2023-06-10T07:15:31;20.30;83.40
52575;DHT22;38468;48.114;-1.684;2023-06-10T07:17:33;20.30;83.30
52575;DHT22;38468;48.114;-1.684;2023-06-10T07:19:35;20.30;83.30
52575;DHT22;38468;48.114;-1.684;2023-06-10T07:21:35;20.30;83.30
52575;DHT22;38468;48.114;-1.684;2023-06-10T07:23:36;20.30;83.30
52575;DHT22;38468;48.114;-1.684;2023-06-10T07:25:37;20.40;83.50
52575;DHT22;38468;48.114;-1.684;2023-06-10T07:27:38;20.40;83.60
52575;DHT22;38468;48.114;-1.684;2023-06-10T07:29:38;20.40;83.40
52575;DHT22;38468;48.114;-1.684;2023-06-10T07:31:41;20.40;83.30
52575;DHT22;38468;48.114;-1.684;2023-06-10T07:33:41;20.50;83.40
52575;DHT22;38468;48.114;-1.684;2023-06-10T07:35:43;20.50;83.30
52575;DHT22;38468;48.114;-1.684;2023-06-10T07:37:44;20.50;83.30
52575;DHT22;38468;48.114;-1.684;2023-06-10T07:39:45;20.50;83.30
52575;DHT22;38468;48.114;-1.684;2023-06-10T07:41:46;20.60;83.10
52575;DHT22;38468;48.114;-1.684;2023-06-10T07:43:47;20.60;83.10
52575;DHT22;38468;48.114;-1.684;2023-06-10T07:45:47;20.60;83.10
52575;DHT22;38468;48.114;-1.684;2023-06-10T07:47:48;20.70;82.90
52575;DHT22;38468;48.114;-1.684;2023-06-10T07:49:49;20.70;82.60
52575;DHT22;38468;48.114;-1.684;2023-06-10T07:51:50;20.70;82.40
52575;DHT22;38468;48.114;-1.684;2023-06-10T07:53:51;20.80;82.60
52575;DHT22;38468;48.114;-1.684;2023-06-10T07:55:51;20.80;82.50
52575;DHT22;38468;48.114;-1.684;2023-06-10T07:57:53;20.80;82.60
52575;DHT22;38468;48.114;-1.684;2023-06-10T07:59:54;20.90;82.60
52575;DHT22;38468;48.114;-1.684;2023-06-10T08:01:55;21.00;82.60
52575;DHT22;38468;48.114;-1.684;2023-06-10T08:03:56;21.00;82.40
52575;DHT22;38468;48.114;-1.684;2023-06-10T08:05:56;21.00;82.30
52575;DHT22;38468;48.114;-1.684;2023-06-10T08:07:57;21.00;81.90
52575;DHT22;38468;48.114;-1.684;2023-06-10T08:09:57;21.00;81.80
52575;DHT22;38468;48.114;-1.684;2023-06-10T08:11:58;21.00;81.80
52575;DHT22;38468;48.114;-1.684;2023-06-10T08:13:59;21.00;81.90
52575;DHT22;38468;48.114;-1.684;2023-06-10T08:16:00;21.00;81.90
52575;DHT22;38468;48.114;-1.684;2023-06-10T08:18:00;21.10;82.10
52575;DHT22;38468;48.114;-1.684;2023-06-10T08:20:01;21.10;82.20
52575;DHT22;38468;48.114;-1.684;2023-06-10T08:22:02;21.10;82.00
52575;DHT22;38468;48.114;-1.684;2023-06-10T08:24:03;21.20;81.90
52575;DHT22;38468;48.114;-1.684;2023-06-10T08:26:04;21.20;81.90
52575;DHT22;38468;48.114;-1.684;2023-06-10T08:28:04;21.30;81.90
52575;DHT22;38468;48.114;-1.684;2023-06-10T08:30:05;21.30;81.60
52575;DHT22;38468;48.114;-1.684;2023-06-10T08:32:06;21.30;81.40
52575;DHT22;38468;48.114;-1.684;2023-06-10T08:34:07;21.20;81.30
52575;DHT22;38468;48.114;-1.684;2023-06-10T08:36:08;21.30;81.40
52575;DHT22;38468;48.114;-1.684;2023-06-10T08:38:08;21.30;81.30
52575;DHT22;38468;48.114;-1.684;2023-06-10T08:40:09;21.30;81.10
52575;DHT22;38468;48.114;-1.684;2023-06-10T08:44:35;21.40;81.00
52575;DHT22;38468;48.114;-1.684;2023-06-10T08:46:38;21.40;81.10
52575;DHT22;38468;48.114;-1.684;2023-06-10T08:48:44;21.40;81.00
52575;DHT22;38468;48.114;-1.684;2023-06-10T08:50:47;21.50;81.10
52575;DHT22;38468;48.114;-1.684;2023-06-10T08:52:52;21.50;80.90
52575;DHT22;38468;48.114;-1.684;2023-06-10T08:55:02;21.50;80.70
52575;DHT22;38468;48.114;-1.684;2023-06-10T08:57:06;21.50;80.80
52575;DHT22;38468;48.114;-1.684;2023-06-10T08:59:08;21.60;80.80
52575;DHT22;38468;48.114;-1.684;2023-06-10T09:01:09;21.60;80.60
52575;DHT22;38468;48.114;-1.684;2023-06-10T09:03:14;21.60;80.50
52575;DHT22;38468;48.114;-1.684;2023-06-10T09:05:19;21.60;80.60
52575;DHT22;38468;48.114;-1.684;2023-06-10T09:07:24;21.60;80.50
52575;DHT22;38468;48.114;-1.684;2023-06-10T09:09:28;21.50;80.20
52575;DHT22;38468;48.114;-1.684;2023-06-10T09:11:32;21.60;80.10
52575;DHT22;38468;48.114;-1.684;2023-06-10T09:13:33;21.50;80.10
52575;DHT22;38468;48.114;-1.684;2023-06-10T09:15:34;21.50;80.10
52575;DHT22;38468;48.114;-1.684;2023-06-10T09:17:44;21.50;80.30
52575;DHT22;38468;48.114;-1.684;2023-06-10T09:19:45;21.60;80.40
52575;DHT22;38468;48.114;-1.684;2023-06-10T09:21:46;21.50;80.30
52575;DHT22;38468;48.114;-1.684;2023-06-10T09:23:48;21.50;80.30
52575;DHT22;38468;48.114;-1.684;2023-06-10T09:25:57;21.50;80.10
52575;DHT22;38468;48.114;-1.684;2023-06-10T09:28:01;21.50;80.20
52575;DHT22;38468;48.114;-1.684;2023-06-10T09:30:04;21.50;80.10
52575;DHT22;38468;48.114;-1.684;2023-06-10T09:32:10;21.50;80.30
52575;DHT22;38468;48.114;-1.684;2023-06-10T09:34:15;21.50;80.30
52575;DHT22;38468;48.114;-1.684;2023-06-10T09:36:26;21.50;80.50
52575;DHT22;38468;48.114;-1.684;2023-06-10T09:38:33;21.50;80.50
52575;DHT22;38468;48.114;-1.684;2023-06-10T09:40:49;21.50;80.30
52575;DHT22;38468;48.114;-1.684;2023-06-10T09:42:56;21.50;80.40
52575;DHT22;38468;48.114;-1.684;2023-06-10T09:44:58;21.50;80.20
52575;DHT22;38468;48.114;-1.684;2023-06-10T09:47:00;21.50;80.10
52575;DHT22;38468;48.114;-1.684;2023-06-10T09:49:04;21.50;80.00
52575;DHT22;38468;48.114;-1.684;2023-06-10T09:51:09;21.50;80.10
52575;DHT22;38468;48.114;-1.684;2023-06-10T09:53:12;21.50;80.10
52575;DHT22;38468;48.114;-1.684;2023-06-10T09:55:13;21.50;79.90
52575;DHT22;38468;48.114;-1.684;2023-06-10T09:57:17;21.50;80.10
52575;DHT22;38468;48.114;-1.684;2023-06-10T09:59:31;21.60;80.20
52575;DHT22;38468;48.114;-1.684;2023-06-10T10:01:36;21.70;80.00
52575;DHT22;38468;48.114;-1.684;2023-06-10T10:03:48;21.70;79.70
52575;DHT22;38468;48.114;-1.684;2023-06-10T10:05:49;21.80;79.70
52575;DHT22;38468;48.114;-1.684;2023-06-10T10:07:53;21.90;79.70
52575;DHT22;38468;48.114;-1.684;2023-06-10T10:09:57;21.80;79.50
52575;DHT22;38468;48.114;-1.684;2023-06-10T10:11:58;21.80;79.30
52575;DHT22;38468;48.114;-1.684;2023-06-10T10:14:04;21.90;79.20
52575;DHT22;38468;48.114;-1.684;2023-06-10T10:16:14;22.00;79.50
52575;DHT22;38468;48.114;-1.684;2023-06-10T10:18:19;22.00;79.40
52575;DHT22;38468;48.114;-1.684;2023-06-10T10:20:27;22.00;79.30
52575;DHT22;38468;48.114;-1.684;2023-06-10T10:22:38;22.10;79.00
52575;DHT22;38468;48.114;-1.684;2023-06-10T10:24:49;22.10;78.90
52575;DHT22;38468;48.114;-1.684;2023-06-10T10:26:50;22.00;78.80
52575;DHT22;38468;48.114;-1.684;2023-06-10T10:29:14;22.00;78.60
52575;DHT22;38468;48.114;-1.684;2023-06-10T10:31:18;22.00;78.60
52575;DHT22;38468;48.114;-1.684;2023-06-10T10:33:23;22.00;78.60
52575;DHT22;38468;48.114;-1.684;2023-06-10T10:35:31;22.00;78.70
52575;DHT22;38468;48.114;-1.684;2023-06-10T10:37:33;22.00;79.00
52575;DHT22;38468;48.114;-1.684;2023-06-10T10:39:36;22.00;79.30
52575;DHT22;38468;48.114;-1.684;2023-06-10T10:41:37;22.00;79.40
52575;DHT22;38468;48.114;-1.684;2023-06-10T10:43:38;22.00;79.50
52575;DHT22;38468;48.114;-1.684;2023-06-10T10:45:39;22.00;79.40
52575;DHT22;38468;48.114;-1.684;2023-06-10T10:47:40;22.00;79.50
52575;DHT22;38468;48.114;-1.684;2023-06-10T10:49:43;22.00;79.40
52575;DHT22;38468;48.114;-1.684;2023-06-10T10:51:56;22.00;79.40
52575;DHT22;38468;48.114;-1.684;2023-06-10T10:54:17;21.90;79.50
52575;DHT22;38468;48.114;-1.684;2023-06-10T10:56:18;21.90;79.50
52575;DHT22;38468;48.114;-1.684;2023-06-10T10:58:24;21.80;79.60
52575;DHT22;38468;48.114;-1.684;2023-06-10T11:00:33;21.80;79.80
52575;DHT22;38468;48.114;-1.684;2023-06-10T11:02:41;21.70;80.00
52575;DHT22;38468;48.114;-1.684;2023-06-10T11:04:47;21.70;80.10
52575;DHT22;38468;48.114;-1.684;2023-06-10T11:06:54;21.70;80.30
52575;DHT22;38468;48.114;-1.684;2023-06-10T11:09:25;21.70;80.40
52575;DHT22;38468;48.114;-1.684;2023-06-10T11:11:27;21.60;80.00
52575;DHT22;38468;48.114;-1.684;2023-06-10T11:13:28;21.60;80.30
52575;DHT22;38468;48.114;-1.684;2023-06-10T11:15:29;21.60;80.40
52575;DHT22;38468;48.114;-1.684;2023-06-10T11:17:30;21.60;80.60
52575;DHT22;38468;48.114;-1.684;2023-06-10T11:19:35;21.60;80.80
52575;DHT22;38468;48.114;-1.684;2023-06-10T11:21:58;21.60;80.60
52575;DHT22;38468;48.114;-1.684;2023-06-10T11:24:12;21.60;80.80
52575;DHT22;38468;48.114;-1.684;2023-06-10T11:28:20;21.60;80.90
52575;DHT22;38468;48.114;-1.684;2023-06-10T11:30:25;21.70;81.20
52575;DHT22;38468;48.114;-1.684;2023-06-10T11:32:30;21.70;81.10
52575;DHT22;38468;48.114;-1.684;2023-06-10T11:34:32;21.80;81.10
52575;DHT22;38468;48.114;-1.684;2023-06-10T11:36:36;21.90;81.20
52575;DHT22;38468;48.114;-1.684;2023-06-10T11:38:36;22.00;80.90
52575;DHT22;38468;48.114;-1.684;2023-06-10T11:40:37;22.00;80.90
52575;DHT22;38468;48.114;-1.684;2023-06-10T11:42:42;22.10;80.80
52575;DHT22;38468;48.114;-1.684;2023-06-10T11:44:53;22.20;80.30
52575;DHT22;38468;48.114;-1.684;2023-06-10T11:47:01;22.40;79.90
52575;DHT22;38468;48.114;-1.684;2023-06-10T11:49:08;22.70;80.30
52575;DHT22;38468;48.114;-1.684;2023-06-10T11:51:09;23.00;79.80
52575;DHT22;38468;48.114;-1.684;2023-06-10T11:53:09;23.10;79.30
52575;DHT22;38468;48.114;-1.684;2023-06-10T11:55:10;23.20;77.80
52575;DHT22;38468;48.114;-1.684;2023-06-10T11:57:11;23.20;77.40
52575;DHT22;38468;48.114;-1.684;2023-06-10T11:59:11;23.40;77.30
52575;DHT22;38468;48.114;-1.684;2023-06-10T12:01:19;23.50;77.20
52575;DHT22;38468;48.114;-1.684;2023-06-10T12:03:21;23.50;76.80
52575;DHT22;38468;48.114;-1.684;2023-06-10T12:05:25;23.50;76.20
52575;DHT22;38468;48.114;-1.684;2023-06-10T12:07:26;23.50;75.80
52575;DHT22;38468;48.114;-1.684;2023-06-10T12:09:28;23.60;76.00
52575;DHT22;38468;48.114;-1.684;2023-06-10T12:11:29;23.70;75.50
52575;DHT22;38468;48.114;-1.684;2023-06-10T12:13:30;23.80;75.60
52575;DHT22;38468;48.114;-1.684;2023-06-10T12:15:30;23.90;75.80
52575;DHT22;38468;48.114;-1.684;2023-06-10T12:19:38;24.00;74.60
52575;DHT22;38468;48.114;-1.684;2023-06-10T12:21:39;24.10;74.90
52575;DHT22;38468;48.114;-1.684;2023-06-10T12:23:40;24.20;74.10
52575;DHT22;38468;48.114;-1.684;2023-06-10T12:25:55;24.30;73.90
52575;DHT22;38468;48.114;-1.684;2023-06-10T12:27:57;24.40;73.90
52575;DHT22;38468;48.114;-1.684;2023-06-10T12:29:59;24.60;73.70
52575;DHT22;38468;48.114;-1.684;2023-06-10T12:32:04;24.50;72.40
52575;DHT22;38468;48.114;-1.684;2023-06-10T12:34:08;24.50;71.40
52575;DHT22;38468;48.114;-1.684;2023-06-10T12:36:16;24.50;71.90
52575;DHT22;38468;48.114;-1.684;2023-06-10T12:38:23;24.50;72.20
52575;DHT22;38468;48.114;-1.684;2023-06-10T12:40:29;24.50;72.10
52575;DHT22;38468;48.114;-1.684;2023-06-10T12:42:30;24.50;72.40
52575;DHT22;38468;48.114;-1.684;2023-06-10T12:44:33;24.40;73.00
52575;DHT22;38468;48.114;-1.684;2023-06-10T12:46:37;24.40;72.70
52575;DHT22;38468;48.114;-1.684;2023-06-10T12:48:49;24.30;72.90
52575;DHT22;38468;48.114;-1.684;2023-06-10T12:50:56;24.30;73.40